createdAt,value
2023-04-28T00:00:56.121Z,100.00
2023-04-28T00:03:24.202Z,100.00
2023-04-28T00:05:54.575Z,100.00
2023-04-28T00:08:27.109Z,100.00
2023-04-28T00:10:54.981Z,100.00
2023-04-28T00:13:22.920Z,100.00
2023-04-28T00:15:53.058Z,100.00
2023-04-28T00:18:21.632Z,100.00
2023-04-28T00:20:49.864Z,100.00
2023-04-28T00:23:17.862Z,100.00
2023-04-28T00:25:45.880Z,100.00
2023-04-28T00:28:18.356Z,100.00
2023-04-28T00:30:56.403Z,100.00
2023-04-28T00:33:24.326Z,100.00
2023-04-28T00:36:00.493Z,100.00
2023-04-28T00:38:28.443Z,100.00
2023-04-28T00:40:56.419Z,100.00
2023-04-28T00:43:24.482Z,100.00
2023-04-28T00:45:53.015Z,100.00
2023-04-28T00:48:23.806Z,100.00
2023-04-28T00:50:52.647Z,100.00
2023-04-28T00:53:20.761Z,100.00
2023-04-28T00:55:50.328Z,100.00
2023-04-28T00:58:18.235Z,100.00
2023-04-28T01:00:46.082Z,100.00
2023-04-28T01:03:14.144Z,100.00
2023-04-28T01:05:43.644Z,100.00
2023-04-28T01:08:11.662Z,100.00
2023-04-28T01:10:45.139Z,100.00
2023-04-28T01:13:13.706Z,100.00
2023-04-28T01:15:41.904Z,100.00
2023-04-28T01:18:09.942Z,100.00
2023-04-28T01:20:37.980Z,100.00
2023-04-28T01:23:07.262Z,100.00
2023-04-28T01:25:36.551Z,100.00
2023-04-28T01:28:04.533Z,100.00
2023-04-28T01:30:32.396Z,100.00
2023-04-28T01:33:00.970Z,100.00
2023-04-28T01:35:29.077Z,100.00
2023-04-28T01:37:57.097Z,100.00
2023-04-28T01:40:25.152Z,100.00
2023-04-28T01:42:54.491Z,100.00
2023-04-28T01:45:22.483Z,100.00
2023-04-28T01:47:50.704Z,100.00
2023-04-28T01:50:18.910Z,100.00
2023-04-28T01:52:46.789Z,100.00
2023-04-28T01:55:14.783Z,100.00
2023-04-28T01:57:42.640Z,100.00
2023-04-28T02:00:12.834Z,100.00
2023-04-28T02:02:41.046Z,100.00
2023-04-28T02:05:09.671Z,100.00
2023-04-28T02:07:37.529Z,100.00
2023-04-28T02:10:06.131Z,100.00
2023-04-28T02:12:33.992Z,100.00
2023-04-28T02:15:02.147Z,100.00
2023-04-28T02:17:32.608Z,100.00
2023-04-28T02:20:00.632Z,100.00
2023-04-28T02:22:28.585Z,100.00
2023-04-28T02:24:56.493Z,100.00
2023-04-28T02:27:24.424Z,100.00
2023-04-28T02:29:52.671Z,100.00
2023-04-28T02:32:20.682Z,100.00
2023-04-28T02:34:56.593Z,100.00
2023-04-28T02:37:24.832Z,100.00
2023-04-28T02:39:53.465Z,100.00
2023-04-28T02:42:21.383Z,100.00
2023-04-28T02:44:49.294Z,100.00
2023-04-28T02:47:17.120Z,100.00
2023-04-28T02:49:45.041Z,100.00
2023-04-28T02:52:14.385Z,100.00
2023-04-28T02:54:42.314Z,100.00
2023-04-28T02:57:10.246Z,100.00
2023-04-28T02:59:38.189Z,100.00
2023-04-28T03:02:06.186Z,100.00
2023-04-28T03:04:34.466Z,100.00
2023-04-28T03:07:02.677Z,100.00
2023-04-28T03:09:32.027Z,100.00
2023-04-28T03:11:59.848Z,100.00
2023-04-28T03:14:27.763Z,100.00
2023-04-28T03:16:56.413Z,100.00
2023-04-28T03:19:24.779Z,100.00
2023-04-28T03:21:52.669Z,100.00
2023-04-28T03:24:20.532Z,100.00
2023-04-28T03:26:49.896Z,100.00
2023-04-28T03:29:17.964Z,100.00
2023-04-28T03:31:45.950Z,100.00
2023-04-28T03:34:14.541Z,100.00
2023-04-28T03:36:42.878Z,100.00
2023-04-28T03:39:10.882Z,100.00
2023-04-28T03:41:38.853Z,100.00
2023-04-28T03:44:08.219Z,100.00
2023-04-28T03:46:36.166Z,100.00
2023-04-28T03:49:04.149Z,100.00
2023-04-28T03:51:33.069Z,100.00
2023-04-28T03:54:01.052Z,100.00
2023-04-28T03:56:28.914Z,100.00
2023-04-28T03:59:11.780Z,100.00
2023-04-28T04:01:41.161Z,100.00
2023-04-28T04:04:09.298Z,100.00
2023-04-28T04:06:37.483Z,100.00
2023-04-28T04:09:05.733Z,100.00
2023-04-28T04:11:33.645Z,100.00
2023-04-28T04:14:01.529Z,100.00
2023-04-28T04:16:29.492Z,100.00
2023-04-28T04:18:58.897Z,100.00
2023-04-28T04:21:27.993Z,100.00
2023-04-28T04:23:56.002Z,100.00
2023-04-28T04:26:24.102Z,100.00
2023-04-28T04:28:52.117Z,100.00
2023-04-28T04:31:20.742Z,100.00
2023-04-28T04:33:48.769Z,100.00
2023-04-28T04:36:18.082Z,100.00
2023-04-28T04:38:46.000Z,100.00
2023-04-28T04:41:14.005Z,100.00
2023-04-28T04:43:42.017Z,100.00
2023-04-28T04:46:09.940Z,100.00
2023-04-28T04:48:37.801Z,100.00
2023-04-28T04:51:06.068Z,100.00
2023-04-28T04:53:35.341Z,100.00
2023-04-28T04:56:03.491Z,100.00
2023-04-28T04:58:31.623Z,100.00
2023-04-28T05:00:59.647Z,100.00
2023-04-28T05:03:27.958Z,100.00
2023-04-28T05:05:55.921Z,100.00
2023-04-28T05:08:23.865Z,100.00
2023-04-28T05:10:53.134Z,100.00
2023-04-28T05:13:21.206Z,100.00
2023-04-28T05:15:49.150Z,100.00
2023-04-28T05:18:17.276Z,100.00
2023-04-28T05:20:45.231Z,100.00
2023-04-28T05:23:13.796Z,100.00
2023-04-28T05:25:41.841Z,100.00
2023-04-28T05:28:11.498Z,100.00
2023-04-28T05:30:39.406Z,100.00
2023-04-28T05:33:07.325Z,100.00
2023-04-28T05:35:35.355Z,100.00
2023-04-28T05:38:03.336Z,100.00
2023-04-28T05:40:31.336Z,100.00
2023-04-28T05:42:59.340Z,100.00
2023-04-28T05:45:28.689Z,100.00
2023-04-28T05:47:56.860Z,100.00
2023-04-28T05:50:25.106Z,100.00
2023-04-28T05:52:54.628Z,100.00
2023-04-28T05:55:22.610Z,100.00
2023-04-28T05:57:53.462Z,100.00
2023-04-28T06:00:22.085Z,100.00
2023-04-28T06:02:51.809Z,100.00
2023-04-28T06:05:20.351Z,99.56
2023-04-28T06:07:50.180Z,98.27
2023-04-28T06:10:18.457Z,100.00
2023-04-28T06:12:46.618Z,100.00
2023-04-28T06:15:15.718Z,100.00
2023-04-28T06:17:46.361Z,96.59
2023-04-28T06:20:16.617Z,97.89
2023-04-28T06:22:44.476Z,99.83
2023-04-28T06:25:13.589Z,99.81
2023-04-28T06:27:41.508Z,97.66
2023-04-28T06:30:10.393Z,96.33
2023-04-28T06:32:38.639Z,95.52
2023-04-28T06:35:07.568Z,94.10
2023-04-28T06:37:37.016Z,92.67
2023-04-28T06:40:05.516Z,92.10
2023-04-28T06:42:33.945Z,92.78
2023-04-28T06:45:03.304Z,90.98
2023-04-28T06:47:31.363Z,90.70
2023-04-28T06:49:59.281Z,87.58
2023-04-28T06:52:38.503Z,87.20
2023-04-28T06:55:10.474Z,87.54
2023-04-28T06:57:38.995Z,86.23
2023-04-28T07:00:08.247Z,81.27
2023-04-28T07:02:37.020Z,83.38
2023-04-28T07:05:05.659Z,80.68
2023-04-28T07:07:33.785Z,85.24
2023-04-28T07:10:02.271Z,79.82
2023-04-28T07:12:31.512Z,76.11
2023-04-28T07:14:59.423Z,75.72
2023-04-28T07:17:27.425Z,75.14
2023-04-28T07:19:55.621Z,73.49
2023-04-28T07:22:23.734Z,74.93
2023-04-28T07:24:51.654Z,75.04
2023-04-28T07:27:19.630Z,76.89
2023-04-28T07:29:49.479Z,79.11
2023-04-28T07:32:17.666Z,76.21
2023-04-28T07:34:45.831Z,74.42
2023-04-28T07:37:13.778Z,73.28
2023-04-28T07:39:42.048Z,72.15
2023-04-28T07:42:10.198Z,71.85
2023-04-28T07:44:38.111Z,72.10
2023-04-28T07:47:07.516Z,72.75
2023-04-28T07:49:35.680Z,71.75
2023-04-28T07:52:03.552Z,69.51
2023-04-28T07:54:31.523Z,70.40
2023-04-28T07:56:59.651Z,69.74
2023-04-28T07:59:27.881Z,68.75
2023-04-28T08:01:55.904Z,67.67
2023-04-28T08:04:26.059Z,67.32
2023-04-28T08:06:54.612Z,66.55
2023-04-28T08:09:22.894Z,68.03
2023-04-28T08:11:50.841Z,67.68
2023-04-28T08:14:18.908Z,66.46
2023-04-28T08:16:47.440Z,65.99
2023-04-28T08:19:15.459Z,64.53
2023-04-28T08:21:45.420Z,64.22
2023-04-28T08:24:13.375Z,64.37
2023-04-28T08:26:41.712Z,63.38
2023-04-28T08:29:09.657Z,63.03
2023-04-28T08:31:38.009Z,62.88
2023-04-28T08:34:08.047Z,63.57
2023-04-28T08:36:35.917Z,63.16
2023-04-28T08:39:08.547Z,60.50
2023-04-28T08:41:40.150Z,61.21
2023-04-28T08:44:09.959Z,62.00
2023-04-28T08:46:42.018Z,59.29
2023-04-28T08:49:15.740Z,60.71
2023-04-28T08:51:47.839Z,60.54
2023-04-28T08:54:26.584Z,59.84
2023-04-28T08:56:57.049Z,61.13
2023-04-28T08:59:25.500Z,60.03
2023-04-28T09:01:53.534Z,60.39
2023-04-28T09:04:22.324Z,60.48
2023-04-28T09:06:50.584Z,59.02
2023-04-28T09:09:25.083Z,59.30
2023-04-28T09:11:58.632Z,58.98
2023-04-28T09:14:27.318Z,58.96
2023-04-28T09:16:55.569Z,59.25
2023-04-28T09:19:23.754Z,59.11
2023-04-28T09:21:54.160Z,59.49
2023-04-28T09:24:31.015Z,58.10
2023-04-28T09:26:59.608Z,57.16
2023-04-28T09:29:27.599Z,58.19
2023-04-28T09:31:56.248Z,57.77
2023-04-28T09:34:24.175Z,57.33
2023-04-28T09:36:52.174Z,56.27
2023-04-28T09:39:32.272Z,56.50
2023-04-28T09:42:03.530Z,56.57
2023-04-28T09:44:31.556Z,56.61
2023-04-28T09:46:59.490Z,56.49
2023-04-28T09:49:27.429Z,56.68
2023-04-28T09:51:55.612Z,56.65
2023-04-28T09:54:25.504Z,56.04
2023-04-28T09:56:56.054Z,55.16
2023-04-28T09:59:24.273Z,56.18
2023-04-28T10:01:52.835Z,54.65
2023-04-28T10:04:22.422Z,54.68
2023-04-28T10:06:51.016Z,54.34
2023-04-28T10:09:26.576Z,52.96
2023-04-28T10:11:55.924Z,52.95
2023-04-28T10:14:25.592Z,52.36
2023-04-28T10:16:54.923Z,54.17
2023-04-28T10:19:22.845Z,54.07
2023-04-28T10:22:02.562Z,53.26
2023-04-28T10:24:31.998Z,54.03
2023-04-28T10:27:08.444Z,52.96
2023-04-28T10:29:37.635Z,53.10
2023-04-28T10:32:23.722Z,51.95
2023-04-28T10:34:51.818Z,51.63
2023-04-28T10:37:20.404Z,50.57
2023-04-28T10:40:26.039Z,50.09
2023-04-28T10:42:56.586Z,50.07
2023-04-28T10:46:02.642Z,48.98
2023-04-28T10:49:06.933Z,46.76
2023-04-28T10:51:36.230Z,48.08
2023-04-28T10:54:17.961Z,47.57
2023-04-28T10:57:23.024Z,46.38
2023-04-28T10:59:52.987Z,44.59
2023-04-28T11:02:44.185Z,44.84
2023-04-28T11:05:18.885Z,45.00
2023-04-28T11:08:30.318Z,44.66
2023-04-28T11:11:17.800Z,43.76
2023-04-28T11:13:47.846Z,44.96
2023-04-28T11:16:19.093Z,44.13
2023-04-28T11:18:55.500Z,44.69
2023-04-28T11:21:25.964Z,44.24
2023-04-28T11:23:54.183Z,44.34
2023-04-28T11:26:23.793Z,44.32
2023-04-28T11:28:54.515Z,44.10
2023-04-28T11:31:25.444Z,43.46
2023-04-28T11:34:00.693Z,42.38
2023-04-28T11:36:31.943Z,42.59
2023-04-28T11:39:00.596Z,42.21
2023-04-28T11:41:28.699Z,41.53
2023-04-28T11:43:56.669Z,42.31
2023-04-28T11:46:26.785Z,41.49
2023-04-28T11:49:05.874Z,42.06
2023-04-28T11:51:38.686Z,41.53
2023-04-28T11:54:11.408Z,41.12
2023-04-28T11:56:40.312Z,42.07
2023-04-28T11:59:10.681Z,41.96
2023-04-28T12:01:48.727Z,41.22
2023-04-28T12:04:27.799Z,42.12
2023-04-28T12:07:03.755Z,42.06
2023-04-28T12:09:32.100Z,41.52
2023-04-28T12:12:03.059Z,40.95
2023-04-28T12:14:32.186Z,41.00
2023-04-28T12:17:01.648Z,40.48
2023-04-28T12:19:29.548Z,40.66
2023-04-28T12:22:02.723Z,41.68
2023-04-28T12:24:30.798Z,41.41
2023-04-28T12:27:17.200Z,41.26
2023-04-28T12:29:46.698Z,41.47
2023-04-28T12:32:17.400Z,41.74
2023-04-28T12:34:46.919Z,41.24
2023-04-28T12:37:15.037Z,41.15
2023-04-28T12:39:43.692Z,40.53
2023-04-28T12:42:11.827Z,40.28
2023-04-28T12:44:40.909Z,40.61
2023-04-28T12:47:11.179Z,40.84
2023-04-28T12:49:41.579Z,41.05
2023-04-28T12:52:09.716Z,40.87
2023-04-28T12:54:38.017Z,40.96
2023-04-28T12:57:06.189Z,40.32
2023-04-28T12:59:34.506Z,42.30
2023-04-28T13:02:02.845Z,41.48
2023-04-28T13:04:31.441Z,41.28
2023-04-28T13:07:01.197Z,41.40
2023-04-28T13:09:29.650Z,41.12
2023-04-28T13:11:57.534Z,41.15
2023-04-28T13:14:27.979Z,40.44
2023-04-28T13:16:56.122Z,41.21
2023-04-28T13:19:24.357Z,40.76
2023-04-28T13:21:52.283Z,40.67
2023-04-28T13:24:21.633Z,40.32
2023-04-28T13:26:49.695Z,40.59
2023-04-28T13:29:18.355Z,40.91
2023-04-28T13:31:46.496Z,41.58
2023-04-28T13:34:16.362Z,42.38
2023-04-28T13:36:44.821Z,42.69
2023-04-28T13:39:14.785Z,42.88
2023-04-28T13:41:44.286Z,41.71
2023-04-28T13:44:12.281Z,41.77
2023-04-28T13:46:40.351Z,42.51
2023-04-28T13:49:08.979Z,42.00
2023-04-28T13:51:37.054Z,41.88
2023-04-28T13:54:08.250Z,42.22
2023-04-28T13:56:37.613Z,42.25
2023-04-28T13:59:07.378Z,42.26
2023-04-28T14:01:35.414Z,41.32
2023-04-28T14:04:03.562Z,41.78
2023-04-28T14:06:33.628Z,40.94
2023-04-28T14:09:03.602Z,40.35
2023-04-28T14:11:31.584Z,40.27
2023-04-28T14:13:59.502Z,39.61
2023-04-28T14:16:29.114Z,40.35
2023-04-28T14:18:57.097Z,40.67
2023-04-28T14:21:24.927Z,41.41
2023-04-28T14:23:52.842Z,40.06
2023-04-28T14:26:21.131Z,40.49
2023-04-28T14:28:49.095Z,39.69
2023-04-28T14:31:18.010Z,39.71
2023-04-28T14:33:47.677Z,40.43
2023-04-28T14:36:15.624Z,40.87
2023-04-28T14:38:43.762Z,40.68
2023-04-28T14:41:11.662Z,40.25
2023-04-28T14:43:39.527Z,41.03
2023-04-28T14:46:08.015Z,41.13
2023-04-28T14:48:36.368Z,40.60
2023-04-28T14:51:05.871Z,40.00
2023-04-28T14:53:33.895Z,40.64
2023-04-28T14:56:17.274Z,40.42
2023-04-28T14:58:46.769Z,40.28
2023-04-28T15:01:14.695Z,40.28
2023-04-28T15:03:42.759Z,40.59
2023-04-28T15:06:13.393Z,40.50
2023-04-28T15:08:41.493Z,41.19
2023-04-28T15:11:09.668Z,41.16
2023-04-28T15:13:37.742Z,40.89
2023-04-28T15:16:06.342Z,41.06
2023-04-28T15:18:34.354Z,40.85
2023-04-28T15:21:02.919Z,40.07
2023-04-28T15:23:32.270Z,39.87
2023-04-28T15:26:00.571Z,39.79
2023-04-28T15:28:28.532Z,40.18
2023-04-28T15:30:57.018Z,40.54
2023-04-28T15:33:24.900Z,41.29
2023-04-28T15:35:52.833Z,41.27
2023-04-28T15:38:20.742Z,40.96
2023-04-28T15:40:50.073Z,41.10
2023-04-28T15:43:18.405Z,40.97
2023-04-28T15:45:47.593Z,41.08
2023-04-28T15:48:16.381Z,40.45
2023-04-28T15:50:44.841Z,39.89
2023-04-28T15:53:12.720Z,40.73
2023-04-28T15:55:40.648Z,41.06
2023-04-28T15:58:10.896Z,41.80
2023-04-28T16:00:40.683Z,41.74
2023-04-28T16:03:08.830Z,41.07
2023-04-28T16:05:37.097Z,42.13
2023-04-28T16:08:05.159Z,42.03
2023-04-28T16:10:33.207Z,42.37
2023-04-28T16:13:01.244Z,42.92
2023-04-28T16:15:34.398Z,42.53
2023-04-28T16:18:02.575Z,43.11
2023-04-28T16:20:42.013Z,42.87
2023-04-28T16:23:13.982Z,43.87
2023-04-28T16:25:42.889Z,43.46
2023-04-28T16:28:10.850Z,43.45
2023-04-28T16:30:40.548Z,43.69
2023-04-28T16:33:13.841Z,43.79
2023-04-28T16:35:42.090Z,44.25
2023-04-28T16:38:11.789Z,44.33
2023-04-28T16:40:39.709Z,44.03
2023-04-28T16:43:07.725Z,43.77
2023-04-28T16:45:35.918Z,43.45
2023-04-28T16:48:05.311Z,43.77
2023-04-28T16:50:34.113Z,43.67
2023-04-28T16:53:02.086Z,43.33
2023-04-28T16:55:30.296Z,43.33
2023-04-28T16:57:58.280Z,43.82
2023-04-28T17:00:26.281Z,44.25
2023-04-28T17:02:54.398Z,44.50
2023-04-28T17:05:23.813Z,44.88
2023-04-28T17:07:51.996Z,45.08
2023-04-28T17:10:20.016Z,45.32
2023-04-28T17:12:47.950Z,45.96
2023-04-28T17:15:17.427Z,45.71
2023-04-28T17:17:45.849Z,46.10
2023-04-28T17:20:16.874Z,45.76
2023-04-28T17:22:46.246Z,46.13
2023-04-28T17:25:14.485Z,46.59
2023-04-28T17:27:42.418Z,46.08
2023-04-28T17:30:12.102Z,47.04
2023-04-28T17:32:40.101Z,46.93
2023-04-28T17:35:09.185Z,47.30
2023-04-28T17:37:37.204Z,47.01
2023-04-28T17:40:07.998Z,47.02
2023-04-28T17:42:35.977Z,47.48
2023-04-28T17:45:04.656Z,47.18
2023-04-28T17:47:34.285Z,47.49
2023-04-28T17:50:02.739Z,47.74
2023-04-28T17:52:30.840Z,48.56
2023-04-28T17:54:58.736Z,47.96
2023-04-28T17:57:28.068Z,48.19
2023-04-28T17:59:55.965Z,48.75
2023-04-28T18:02:23.852Z,48.69
2023-04-28T18:04:52.153Z,48.88
2023-04-28T18:07:20.430Z,50.15
2023-04-28T18:09:48.377Z,51.40
2023-04-28T18:12:16.315Z,52.80
2023-04-28T18:14:45.681Z,53.54
2023-04-28T18:17:13.597Z,54.93
2023-04-28T18:19:42.143Z,55.23
2023-04-28T18:22:10.067Z,56.40
2023-04-28T18:24:37.972Z,57.37
2023-04-28T18:27:05.864Z,57.30
2023-04-28T18:29:33.890Z,57.77
2023-04-28T18:32:03.521Z,59.23
2023-04-28T18:34:31.546Z,59.76
2023-04-28T18:37:01.887Z,60.09
2023-04-28T18:39:30.057Z,61.08
2023-04-28T18:41:58.712Z,61.83
2023-04-28T18:44:26.678Z,62.11
2023-04-28T18:46:56.655Z,63.07
2023-04-28T18:49:30.346Z,64.62
2023-04-28T18:52:01.323Z,65.87
2023-04-28T18:54:31.200Z,67.07
2023-04-28T18:56:59.879Z,68.69
2023-04-28T18:59:28.192Z,69.02
2023-04-28T19:01:58.599Z,69.47
2023-04-28T19:04:28.465Z,70.97
2023-04-28T19:06:56.690Z,72.36
2023-04-28T19:09:24.691Z,71.61
2023-04-28T19:11:53.254Z,73.12
2023-04-28T19:14:21.245Z,72.81
2023-04-28T19:16:49.654Z,72.97
2023-04-28T19:19:17.902Z,73.13
2023-04-28T19:21:47.584Z,72.45
2023-04-28T19:24:15.517Z,72.05
2023-04-28T19:26:48.239Z,72.09
2023-04-28T19:29:17.400Z,72.68
2023-04-28T19:31:45.835Z,73.21
2023-04-28T19:34:14.113Z,75.02
2023-04-28T19:36:42.170Z,77.34
2023-04-28T19:39:11.442Z,79.05
2023-04-28T19:41:39.416Z,80.06
2023-04-28T19:44:07.426Z,77.91
2023-04-28T19:46:35.933Z,79.14
2023-04-28T19:49:03.917Z,80.46
2023-04-28T19:51:32.584Z,82.53
2023-04-28T19:54:00.477Z,80.14
2023-04-28T19:56:30.328Z,82.39
2023-04-28T19:58:58.775Z,80.94
2023-04-28T20:01:26.820Z,78.31
2023-04-28T20:03:55.473Z,77.57
2023-04-28T20:06:23.611Z,80.59
2023-04-28T20:08:51.679Z,82.35
2023-04-28T20:11:19.662Z,81.67
2023-04-28T20:13:51.865Z,81.08
2023-04-28T20:16:20.504Z,80.09
2023-04-28T20:18:48.747Z,79.47
2023-04-28T20:21:16.697Z,82.77
2023-04-28T20:23:44.733Z,83.01
2023-04-28T20:26:15.178Z,89.25
2023-04-28T20:28:44.582Z,92.92
2023-04-28T20:31:13.919Z,94.27
2023-04-28T20:33:41.816Z,98.16
2023-04-28T20:36:10.250Z,100.00
2023-04-28T20:38:38.119Z,96.01
2023-04-28T20:41:07.762Z,90.12
2023-04-28T20:43:35.690Z,91.91
2023-04-28T20:46:03.701Z,93.67
2023-04-28T20:48:34.253Z,91.39
2023-04-28T20:51:03.653Z,99.36
2023-04-28T20:53:33.109Z,100.00
2023-04-28T20:56:01.426Z,98.62
2023-04-28T20:58:30.952Z,98.81
2023-04-28T21:00:59.221Z,92.55
2023-04-28T21:03:27.282Z,86.91
2023-04-28T21:05:56.791Z,82.57
2023-04-28T21:08:24.706Z,81.21
2023-04-28T21:10:52.637Z,80.17
2023-04-28T21:13:20.577Z,80.15
2023-04-28T21:15:48.538Z,80.42
2023-04-28T21:18:16.432Z,84.35
2023-04-28T21:20:44.332Z,84.38
2023-04-28T21:23:13.566Z,86.25
2023-04-28T21:25:41.431Z,85.94
2023-04-28T21:28:09.343Z,84.47
2023-04-28T21:30:37.204Z,83.27
2023-04-28T21:33:05.335Z,85.65
2023-04-28T21:35:33.303Z,99.86
2023-04-28T21:38:01.308Z,100.00
2023-04-28T21:40:30.624Z,96.61
2023-04-28T21:42:58.468Z,100.00
2023-04-28T21:45:26.604Z,100.00
2023-04-28T21:47:54.528Z,100.00
2023-04-28T21:50:22.658Z,100.00
2023-04-28T21:52:50.581Z,100.00
2023-04-28T21:55:18.735Z,100.00
2023-04-28T21:57:48.033Z,100.00
2023-04-28T22:00:16.751Z,100.00
2023-04-28T22:02:44.815Z,100.00
2023-04-28T22:05:13.150Z,100.00
2023-04-28T22:07:41.023Z,100.00
2023-04-28T22:10:10.398Z,100.00
2023-04-28T22:12:38.424Z,100.00
2023-04-28T22:15:08.938Z,100.00
2023-04-28T22:17:37.391Z,100.00
2023-04-28T22:20:06.113Z,100.00
2023-04-28T22:22:33.987Z,100.00
2023-04-28T22:25:02.021Z,100.00
2023-04-28T22:27:30.459Z,100.00
2023-04-28T22:29:58.842Z,100.00
2023-04-28T22:32:28.362Z,100.00
2023-04-28T22:34:56.543Z,100.00
2023-04-28T22:37:24.399Z,100.00
2023-04-28T22:39:52.611Z,100.00
2023-04-28T22:42:20.906Z,100.00
2023-04-28T22:44:48.768Z,100.00
2023-04-28T22:47:17.594Z,100.00
2023-04-28T22:49:47.030Z,100.00
2023-04-28T22:52:14.884Z,100.00
2023-04-28T22:54:42.806Z,100.00
2023-04-28T22:57:10.702Z,100.00
2023-04-28T22:59:38.642Z,100.00
2023-04-28T23:02:06.552Z,100.00
2023-04-28T23:04:34.721Z,100.00
2023-04-28T23:07:04.115Z,100.00
2023-04-28T23:09:35.704Z,100.00
2023-04-28T23:12:04.185Z,100.00
2023-04-28T23:14:32.666Z,100.00
2023-04-28T23:17:00.660Z,100.00
2023-04-28T23:19:28.546Z,100.00
2023-04-28T23:21:56.477Z,100.00
2023-04-28T23:24:26.659Z,100.00
2023-04-28T23:26:54.568Z,100.00
2023-04-28T23:29:23.914Z,100.00
2023-04-28T23:31:54.905Z,100.00
2023-04-28T23:34:23.288Z,100.00
2023-04-28T23:36:51.725Z,100.00
2023-04-28T23:39:19.682Z,100.00
2023-04-28T23:41:48.984Z,100.00
2023-04-28T23:44:17.153Z,100.00
2023-04-28T23:46:45.087Z,100.00
2023-04-28T23:49:13.298Z,100.00
2023-04-28T23:51:41.256Z,100.00
2023-04-28T23:54:09.861Z,100.00
2023-04-28T23:56:37.812Z,100.00
2023-04-28T23:59:08.378Z,100.00
